1A6

Middlesboro-Bell County Airport

Middlesboro, Kentucky, USA
METAR K1A6 191555Z AUTO 24003KT 3SM -RA SCT018 SCT043 OVC070 07/07 A2982 RMK AO2 P0019 T00700070
Observed Flight Rules
Jan-19 @ 15:55 UTC (43 minutes ago) Marginal Visual Flight Rules
Wind Visibility Clouds Conditions
240° at 3 knots 3 miles
  • Scattered at 1,800' AGL
  • Scattered at 4,300' AGL
  • Overcast at 7,000' AGL
  • Light Rain
Temperatures Readings Precipitation
Current 7°C / 45°F
Dewpoint 7°C / 45°F
Humidity 100%
Altimeter 29.82" Hg
Pressure 1009.82 hPa
Elevation 352
Current Rain 0.19
METAR K1A6 191555Z AUTO 24003KT 3SM -RA SCT018 SCT043 OVC070 07/07 A2982 RMK AO2 P0019 T00700070
Observed Flight Rules
Jan-19 @ 15:55 UTC
(43 minutes ago)
MVFR
Wind Visibility
240° at 3 knots 3 miles
Clouds
  • Scattered at 1,800' AGL
  • Scattered at 4,300' AGL
  • Overcast at 7,000' AGL
Conditions
  • Light Rain
Temperature Dewpoint
7°C / 45°F 7°C / 45°F
Humidity Altimeter Pressure
100% 29.82" Hg 1009.82 hPa
Current Rain
0.19